Time;durP1;ratioP1;P1;durP2;ratioP2;P2;SDS_P1;SDS_P2;PMS_P1;PMS_P2;Temp;Humidity;BMP_temperature;BMP_pressure;BME280_temperature;BME280_humidity;BME280_pressure;Samples;Min_cycle;Max_cycle;Signal;HPM_P1;HPM_P2
2024/01/15 00:01:48;;;;;;;3.73;0.90;;;5.20;1.00;;;;;;5054340;28;20268;-69
2024/01/15 00:04:13;;;;;;;2.77;0.93;;;5.30;1.00;;;;;;5054163;28;20184;-69
2024/01/15 00:06:39;;;;;;;5.20;0.70;;;5.20;1.00;;;;;;5052533;28;20177;-69
2024/01/15 00:09:06;;;;;;;2.60;0.70;;;5.00;1.00;;;;;;5036003;28;20173;-69
2024/01/15 00:11:32;;;;;;;10.17;1.00;;;5.10;1.00;;;;;;5053940;28;20176;-70
2024/01/15 00:13:58;;;;;;;6.07;0.90;;;5.20;1.00;;;;;;5053835;28;20256;-70
2024/01/15 00:16:24;;;;;;;7.37;0.80;;;5.20;76.30;;;;;;5054056;28;20538;-70
2024/01/15 00:18:49;;;;;;;4.13;0.90;;;5.20;99.90;;;;;;5053626;28;20199;-70
2024/01/15 00:21:15;;;;;;;3.70;1.17;;;5.10;99.90;;;;;;5053588;28;20209;-69
2024/01/15 00:23:44;;;;;;;2.00;0.63;;;5.10;99.90;;;;;;5053669;28;20193;-69
2024/01/15 00:26:10;;;;;;;3.00;0.90;;;;;;;;;;5035283;28;20585;-70
2024/01/15 00:28:37;;;;;;;3.60;0.70;;;4.90;1.00;;;;;;5053684;28;20205;-70
2024/01/15 00:31:06;;;;;;;4.80;0.83;;;5.00;99.90;;;;;;5053357;28;20175;-70
2024/01/15 00:33:32;;;;;;;5.60;0.60;;;5.00;99.90;;;;;;5053164;28;20235;-69
2024/01/15 00:35:57;;;;;;;1.93;0.53;;;5.00;1.00;;;;;;5052537;28;20193;-69
2024/01/15 00:38:23;;;;;;;3.40;0.90;;;5.00;1.00;;;;;;5053370;28;20185;-69
2024/01/15 00:40:49;;;;;;;6.63;1.27;;;5.00;1.00;;;;;;5053069;28;20185;-69
2024/01/15 00:43:14;;;;;;;2.23;1.10;;;4.90;1.00;;;;;;5053207;28;20192;-69
2024/01/15 00:45:41;;;;;;;3.63;1.00;;;4.90;1.00;;;;;;5053120;28;20184;-69
2024/01/15 00:48:06;;;;;;;5.00;1.13;;;4.90;1.00;;;;;;5053044;28;20632;-69
2024/01/15 00:50:32;;;;;;;5.60;1.00;;;4.90;1.00;;;;;;5035052;28;20192;-69
2024/01/15 00:52:58;;;;;;;8.10;1.00;;;4.90;1.00;;;;;;5052924;28;20185;-69
2024/01/15 00:55:23;;;;;;;3.90;1.00;;;4.90;1.00;;;;;;5035032;28;20176;-69
2024/01/15 00:57:49;;;;;;;4.03;0.90;;;4.90;1.00;;;;;;5050797;28;20276;-71
2024/01/15 01:00:15;;;;;;;9.00;0.90;;;4.90;1.00;;;;;;5041060;28;20539;-69
2024/01/15 01:02:40;;;;;;;2.20;0.83;;;4.90;1.00;;;;;;5052383;28;20578;-69
2024/01/15 01:05:06;;;;;;;1.97;0.80;;;4.80;1.00;;;;;;5041023;28;20767;-69
2024/01/15 01:07:32;;;;;;;3.30;0.60;;;4.80;1.00;;;;;;5032591;28;20629;-69
2024/01/15 01:09:57;;;;;;;1.40;0.57;;;4.80;1.00;;;;;;5032708;28;20169;-69
2024/01/15 01:12:23;;;;;;;6.73;0.73;;;4.60;1.00;;;;;;5032605;28;20570;-69
2024/01/15 01:14:49;;;;;;;1.67;0.70;;;4.60;1.00;;;;;;5045013;28;20173;-70
2024/01/15 01:17:14;;;;;;;3.20;0.80;;;4.80;76.50;;;;;;5052300;28;20212;-69
2024/01/15 01:19:40;;;;;;;6.23;0.80;;;4.80;46.90;;;;;;5052221;28;20157;-69
2024/01/15 01:22:06;;;;;;;1.07;0.57;;;4.80;99.90;;;;;;5052218;28;20262;-70
2024/01/15 01:24:31;;;;;;;3.80;0.80;;;4.80;1.00;;;;;;5052441;28;20173;-68
2024/01/15 01:26:57;;;;;;;1.73;0.80;;;4.30;1.00;;;;;;5052135;28;20177;-68
2024/01/15 01:29:23;;;;;;;5.40;0.80;;;4.80;1.00;;;;;;5052276;28;20169;-69
2024/01/15 01:31:49;;;;;;;2.00;0.80;;;4.80;1.00;;;;;;5052032;28;20222;-69
2024/01/15 01:34:16;;;;;;;3.70;0.80;;;4.90;1.00;;;;;;5051970;28;20173;-69
2024/01/15 01:36:45;;;;;;;2.63;0.43;;;4.90;1.00;;;;;;5051842;28;20240;-69
2024/01/15 01:39:10;;;;;;;2.80;0.70;;;4.90;1.00;;;;;;5050800;28;20691;-68
2024/01/15 01:41:36;;;;;;;2.67;0.60;;;4.90;1.00;;;;;;5052085;28;20304;-69
2024/01/15 01:44:02;;;;;;;3.03;0.60;;;7.00;1.00;;;;;;5051976;28;20582;-69
2024/01/15 01:46:28;;;;;;;5.70;0.70;;;4.90;1.00;;;;;;5051982;28;20165;-69
2024/01/15 01:48:55;;;;;;;3.00;0.70;;;4.80;99.90;;;;;;5051860;28;20252;-69
2024/01/15 01:51:24;;;;;;;4.50;0.70;;;4.80;99.90;;;;;;5051789;28;20252;-69
2024/01/15 01:53:50;;;;;;;1.90;0.70;;;4.80;99.90;;;;;;5051953;28;20173;-69
2024/01/15 01:56:17;;;;;;;5.97;1.00;;;4.70;99.90;;;;;;5051574;28;20193;-69
2024/01/15 01:58:44;;;;;;;2.43;0.77;;;4.30;1.00;;;;;;5051728;28;20271;-68
2024/01/15 02:01:11;;;;;;;2.90;0.80;;;5.40;1.00;;;;;;5051594;28;20189;-69
2024/01/15 02:03:38;;;;;;;4.40;1.10;;;4.50;1.00;;;;;;5051557;28;20169;-70
2024/01/15 02:06:04;;;;;;;8.73;1.50;;;5.10;1.00;;;;;;5051661;28;20177;-69
2024/01/15 02:08:30;;;;;;;4.17;1.33;;;3.00;1.00;;;;;;5051530;28;20173;-71
2024/01/15 02:10:56;;;;;;;2.60;1.10;;;3.90;1.00;;;;;;5051533;28;20203;-70
2024/01/15 02:13:22;;;;;;;2.67;1.10;;;;;;;;;;5051623;28;20165;-71
2024/01/15 02:15:47;;;;;;;4.57;0.93;;;4.50;42.80;;;;;;5033416;28;20173;-70
2024/01/15 02:18:14;;;;;;;3.47;0.93;;;;;;;;;;5051493;28;20165;-71
2024/01/15 02:20:39;;;;;;;3.10;0.93;;;4.40;99.90;;;;;;5051231;28;20648;-68
2024/01/15 02:23:14;;;;;;;5.20;1.20;;;4.30;99.90;;;;;;5051366;28;20227;-69
2024/01/15 02:25:45;;;;;;;3.73;1.27;;;4.30;99.90;;;;;;5051220;28;20192;-71
2024/01/15 02:28:13;;;;;;;2.10;1.13;;;4.30;99.90;;;;;;5051271;28;20175;-68
2024/01/15 02:30:40;;;;;;;4.73;1.53;;;4.30;99.90;;;;;;5051268;28;20693;-69
2024/01/15 02:33:06;;;;;;;5.97;1.07;;;4.40;99.90;;;;;;5051217;28;20185;-69
2024/01/15 02:35:32;;;;;;;2.43;0.97;;;4.30;99.90;;;;;;5051310;28;20165;-69
2024/01/15 02:37:58;;;;;;;2.60;1.13;;;4.20;99.90;;;;;;5050943;28;20255;-69
2024/01/15 02:40:24;;;;;;;3.53;1.10;;;4.00;99.90;;;;;;5051255;28;20180;-69
2024/01/15 02:42:50;;;;;;;3.30;1.20;;;4.20;99.90;;;;;;5050939;28;20231;-68
2024/01/15 02:45:16;;;;;;;4.30;1.20;;;4.20;99.90;;;;;;5051047;28;20176;-69
2024/01/15 02:47:42;;;;;;;4.77;1.20;;;4.20;99.90;;;;;;5051273;28;20243;-69
2024/01/15 02:50:08;;;;;;;3.73;1.00;;;;;;;;;;5050734;28;20173;-70
2024/01/15 02:52:33;;;;;;;2.93;1.00;;;4.20;99.90;;;;;;5050963;28;20173;-70
2024/01/15 02:54:59;;;;;;;3.73;0.93;;;3.70;99.90;;;;;;5051060;28;20301;-71
2024/01/15 02:57:25;;;;;;;2.33;0.83;;;3.50;99.90;;;;;;5050794;28;20258;-69
2024/01/15 02:59:50;;;;;;;4.60;1.10;;;3.90;99.90;;;;;;5050893;28;20173;-70
2024/01/15 03:02:16;;;;;;;1.37;0.83;;;3.90;99.90;;;;;;5050902;28;20217;-71
2024/01/15 03:04:44;;;;;;;7.30;1.20;;;3.90;99.90;;;;;;5050889;28;20231;-70
2024/01/15 03:07:10;;;;;;;3.60;0.90;;;3.80;99.90;;;;;;5050900;28;20663;-71
2024/01/15 03:09:36;;;;;;;0.93;0.77;;;3.70;99.90;;;;;;5032958;28;20173;-70
2024/01/15 03:12:02;;;;;;;2.83;0.97;;;3.60;99.90;;;;;;5050812;28;20173;-70
2024/01/15 03:14:27;;;;;;;4.43;1.40;;;3.50;99.90;;;;;;5050813;28;20183;-71
2024/01/15 03:16:53;;;;;;;4.13;1.37;;;3.20;99.90;;;;;;5050656;28;20656;-69
2024/01/15 03:19:19;;;;;;;1.37;1.03;;;3.50;99.90;;;;;;5050793;28;20177;-70
2024/01/15 03:21:46;;;;;;;2.80;1.40;;;3.30;99.90;;;;;;5050511;28;20217;-69
2024/01/15 03:24:11;;;;;;;3.53;1.10;;;3.30;99.90;;;;;;5050498;28;20223;-69
2024/01/15 03:26:37;;;;;;;4.30;1.27;;;3.20;99.90;;;;;;5050360;28;20177;-69
2024/01/15 03:29:02;;;;;;;2.83;1.17;;;3.30;99.90;;;;;;5050281;28;20173;-69
2024/01/15 03:31:28;;;;;;;3.73;1.40;;;3.20;99.90;;;;;;5050658;28;20186;-69
2024/01/15 03:33:54;;;;;;;4.27;1.17;;;3.30;99.90;;;;;;5050187;28;20201;-68
2024/01/15 03:36:19;;;;;;;2.63;1.10;;;3.30;99.90;;;;;;5050251;28;20213;-70
2024/01/15 03:38:45;;;;;;;2.77;1.40;;;3.30;99.90;;;;;;5038859;28;20194;-69
2024/01/15 03:41:11;;;;;;;3.23;1.70;;;3.40;99.90;;;;;;5050158;28;20258;-70
2024/01/15 03:43:37;;;;;;;6.23;1.70;;;3.40;99.90;;;;;;5050519;28;20181;-69
2024/01/15 03:46:02;;;;;;;3.53;1.43;;;3.30;99.90;;;;;;5050270;28;20676;-69
2024/01/15 03:48:28;;;;;;;1.77;1.30;;;3.30;99.90;;;;;;5050244;28;20171;-69
2024/01/15 03:50:54;;;;;;;1.80;1.20;;;3.30;99.90;;;;;;5050369;28;20173;-70
2024/01/15 03:53:19;;;;;;;5.00;1.60;;;3.30;99.90;;;;;;5049997;28;20639;-71
2024/01/15 03:55:45;;;;;;;3.57;1.50;;;3.20;99.90;;;;;;5050000;28;20181;-69
2024/01/15 03:58:11;;;;;;;5.23;1.80;;;3.20;99.90;;;;;;5049835;28;20169;-69
2024/01/15 04:00:37;;;;;;;3.43;1.50;;;3.20;99.90;;;;;;5049767;28;20590;-71
2024/01/15 04:03:03;;;;;;;2.13;1.30;;;;;;;;;;5053809;28;20591;-70
2024/01/15 04:05:28;;;;;;;4.87;1.93;;;3.10;99.90;;;;;;5053583;28;20169;-70
2024/01/15 04:07:54;;;;;;;4.33;1.30;;;3.10;99.90;;;;;;5035830;28;20663;-70
2024/01/15 04:10:20;;;;;;;2.83;1.60;;;3.10;99.90;;;;;;5053300;28;20212;-69
2024/01/15 04:12:46;;;;;;;4.17;1.50;;;3.10;99.90;;;;;;5053455;28;20235;-70
2024/01/15 04:15:12;;;;;;;3.27;1.60;;;3.20;99.90;;;;;;5035792;28;20191;-70
2024/01/15 04:17:38;;;;;;;4.23;1.70;;;3.30;99.90;;;;;;5052950;28;20220;-69
2024/01/15 04:20:04;;;;;;;1.93;1.27;;;3.40;99.90;;;;;;5053514;28;20223;-70
2024/01/15 04:22:30;;;;;;;3.53;1.20;;;3.30;99.90;;;;;;5053107;28;20217;-71
2024/01/15 04:24:56;;;;;;;7.33;1.40;;;3.20;99.90;;;;;;5053552;28;20177;-70
2024/01/15 04:27:21;;;;;;;2.40;1.13;;;3.30;99.90;;;;;;5053376;28;20169;-70
2024/01/15 04:29:47;;;;;;;2.03;1.37;;;3.20;99.90;;;;;;5053391;28;20178;-70
2024/01/15 04:32:13;;;;;;;3.23;1.40;;;3.20;99.90;;;;;;5053181;28;20181;-70
2024/01/15 04:34:38;;;;;;;4.07;1.20;;;3.10;99.90;;;;;;5053240;28;20173;-70
2024/01/15 04:37:04;;;;;;;3.97;1.40;;;3.30;99.90;;;;;;5052976;28;20225;-70
2024/01/15 04:39:30;;;;;;;5.53;1.53;;;3.00;99.90;;;;;;5052916;28;20255;-69
2024/01/15 04:41:55;;;;;;;2.17;1.00;;;3.00;99.90;;;;;;5052931;28;20304;-70
2024/01/15 04:44:21;;;;;;;3.17;1.30;;;2.90;99.90;;;;;;5053122;28;20220;-69
2024/01/15 04:46:46;;;;;;;4.03;1.00;;;2.80;99.90;;;;;;5052899;28;20184;-69
2024/01/15 04:49:12;;;;;;;5.30;1.10;;;3.00;99.90;;;;;;5052807;28;20177;-70
2024/01/15 04:51:38;;;;;;;3.67;1.20;;;3.00;99.90;;;;;;5052503;28;20535;-69
2024/01/15 04:54:04;;;;;;;7.20;1.40;;;2.90;99.90;;;;;;5052635;28;20173;-69
2024/01/15 04:56:29;;;;;;;3.67;1.17;;;3.00;99.90;;;;;;5052955;28;20173;-70
2024/01/15 04:58:55;;;;;;;1.90;1.00;;;2.90;99.90;;;;;;5052509;28;20173;-69
2024/01/15 05:01:21;;;;;;;2.83;1.17;;;2.60;99.90;;;;;;5052913;28;20346;-69
2024/01/15 05:03:46;;;;;;;3.23;1.20;;;2.80;99.90;;;;;;5052766;28;20180;-70
2024/01/15 05:06:12;;;;;;;2.53;0.87;;;2.50;99.90;;;;;;5052887;28;20666;-69
2024/01/15 05:08:38;;;;;;;1.30;1.20;;;2.50;99.90;;;;;;5052800;28;20250;-70
2024/01/15 05:11:03;;;;;;;3.83;1.20;;;2.50;99.90;;;;;;5052745;28;20173;-70
2024/01/15 05:13:29;;;;;;;3.93;1.30;;;2.40;99.90;;;;;;5052588;28;20169;-69
2024/01/15 05:15:55;;;;;;;8.17;1.30;;;2.50;99.90;;;;;;5052628;28;20168;-70
2024/01/15 05:18:20;;;;;;;3.50;1.07;;;2.30;99.90;;;;;;5052588;28;20173;-69
2024/01/15 05:20:46;;;;;;;4.97;1.07;;;;;;;;;;5052264;28;20219;-69
2024/01/15 05:23:12;;;;;;;7.20;1.40;;;2.30;99.90;;;;;;5052505;28;20613;-70
2024/01/15 05:25:38;;;;;;;4.83;1.20;;;2.30;99.90;;;;;;5052218;28;20177;-70
2024/01/15 05:28:05;;;;;;;2.70;1.30;;;2.20;99.90;;;;;;5052575;28;20682;-69
2024/01/15 05:30:31;;;;;;;6.10;1.20;;;2.30;99.90;;;;;;5034718;28;20173;-69
2024/01/15 05:32:57;;;;;;;3.50;1.37;;;2.20;99.90;;;;;;5052279;28;20219;-70
2024/01/15 05:35:23;;;;;;;2.10;1.10;;;2.20;99.90;;;;;;5052329;28;20188;-70
2024/01/15 05:37:49;;;;;;;2.33;1.03;;;2.10;99.90;;;;;;5051976;28;20605;-69
2024/01/15 05:40:14;;;;;;;2.90;1.17;;;2.00;99.90;;;;;;5052231;28;20169;-70
2024/01/15 05:42:41;;;;;;;5.23;1.30;;;1.80;99.90;;;;;;5051956;28;20213;-70
2024/01/15 05:45:07;;;;;;;2.40;1.53;;;1.90;99.90;;;;;;5051969;28;20197;-69
2024/01/15 05:47:33;;;;;;;11.50;1.50;;;1.70;99.90;;;;;;5052045;28;20184;-70
2024/01/15 05:50:02;;;;;;;3.03;1.20;;;1.70;99.90;;;;;;5051851;28;20161;-69
2024/01/15 05:52:27;;;;;;;1.53;1.10;;;1.70;99.90;;;;;;5051556;28;20207;-70
2024/01/15 05:54:53;;;;;;;5.13;1.30;;;1.60;99.90;;;;;;5034032;28;20169;-70
2024/01/15 05:57:19;;;;;;;9.23;1.57;;;1.60;99.90;;;;;;5051820;28;20178;-70
2024/01/15 05:59:45;;;;;;;2.57;1.23;;;1.30;99.90;;;;;;5051891;28;20174;-70
2024/01/15 06:02:10;;;;;;;2.90;1.77;;;1.10;99.90;;;;;;5051625;28;20311;-70
2024/01/15 06:04:36;;;;;;;3.83;1.70;;;1.60;99.90;;;;;;5051549;28;20188;-70
2024/01/15 06:07:02;;;;;;;4.30;1.50;;;1.50;99.90;;;;;;5051302;28;20177;-69
2024/01/15 06:09:28;;;;;;;4.57;1.37;;;1.40;99.90;;;;;;5051296;28;20181;-70
2024/01/15 06:11:54;;;;;;;5.70;1.40;;;1.40;99.90;;;;;;5051617;28;20177;-70
2024/01/15 06:14:20;;;;;;;7.10;1.53;;;1.40;99.90;;;;;;5051543;28;20184;-70
2024/01/15 06:16:46;;;;;;;2.80;1.40;;;1.20;99.90;;;;;;5044111;28;20185;-70
2024/01/15 06:19:12;;;;;;;3.90;1.57;;;1.10;99.90;;;;;;5044191;28;20204;-70
2024/01/15 06:21:37;;;;;;;5.57;1.60;;;1.00;99.90;;;;;;5050986;28;20263;-70
2024/01/15 06:24:03;;;;;;;3.53;1.60;;;;;;;;;;5030960;28;20216;-69
2024/01/15 06:26:29;;;;;;;3.70;1.73;;;1.20;99.90;;;;;;5046021;28;20180;-69
2024/01/15 06:28:55;;;;;;;4.47;1.70;;;1.00;99.90;;;;;;5051165;28;20161;-69
2024/01/15 06:31:21;;;;;;;4.30;1.30;;;1.00;99.90;;;;;;5051294;28;20173;-69
2024/01/15 06:33:48;;;;;;;4.90;1.60;;;0.90;99.90;;;;;;5051019;28;20169;-69
2024/01/15 06:36:14;;;;;;;2.60;1.67;;;1.00;99.90;;;;;;5030943;28;20188;-69
2024/01/15 06:38:40;;;;;;;5.57;1.53;;;1.00;99.90;;;;;;5030804;28;20293;-69
2024/01/15 06:41:05;;;;;;;4.40;1.67;;;1.10;99.90;;;;;;5030901;28;20583;-69
2024/01/15 06:43:31;;;;;;;2.17;1.57;;;1.30;99.90;;;;;;5031020;28;20227;-68
2024/01/15 06:45:57;;;;;;;3.50;1.77;;;1.20;99.90;;;;;;5030984;28;20184;-71
2024/01/15 06:48:22;;;;;;;3.40;1.97;;;1.20;99.90;;;;;;5031024;28;20177;-70
2024/01/15 06:50:48;;;;;;;3.70;1.90;;;1.10;99.90;;;;;;5030936;28;20170;-69
2024/01/15 06:53:14;;;;;;;3.67;1.77;;;1.10;99.90;;;;;;5030906;28;20182;-69
2024/01/15 06:55:40;;;;;;;3.33;2.00;;;1.10;99.90;;;;;;5030934;28;20283;-69
2024/01/15 06:58:05;;;;;;;6.33;2.20;;;1.20;99.90;;;;;;5030744;28;20679;-70
2024/01/15 07:00:31;;;;;;;5.17;1.97;;;1.00;99.90;;;;;;5030962;28;20252;-69
2024/01/15 07:02:57;;;;;;;4.50;2.00;;;0.70;99.90;;;;;;5045214;28;20213;-69
2024/01/15 07:05:24;;;;;;;5.63;1.90;;;0.80;99.90;;;;;;5050679;28;20170;-69
2024/01/15 07:07:50;;;;;;;10.37;2.30;;;0.80;99.90;;;;;;5050810;28;20177;-70
2024/01/15 07:10:16;;;;;;;4.20;2.07;;;0.80;99.90;;;;;;5050794;28;20295;-70
2024/01/15 07:12:45;;;;;;;6.70;2.10;;;0.70;99.90;;;;;;5032771;28;20699;-69
2024/01/15 07:15:10;;;;;;;5.27;1.93;;;0.80;99.90;;;;;;5050272;28;20211;-69
2024/01/15 07:17:39;;;;;;;4.10;2.23;;;0.80;99.90;;;;;;5050132;28;20181;-69
2024/01/15 07:20:07;;;;;;;4.17;2.00;;;0.70;99.90;;;;;;5050250;28;20244;-69
2024/01/15 07:22:33;;;;;;;3.40;1.80;;;0.70;99.90;;;;;;5050483;28;20205;-69
2024/01/15 07:24:59;;;;;;;3.97;2.00;;;0.60;99.90;;;;;;5050684;28;20173;-70
2024/01/15 07:27:25;;;;;;;3.67;1.97;;;0.40;99.90;;;;;;5050641;28;20180;-70
2024/01/15 07:29:50;;;;;;;3.17;2.20;;;0.50;99.90;;;;;;5050483;28;20173;-69
2024/01/15 07:32:16;;;;;;;4.20;2.40;;;0.20;99.90;;;;;;5050555;28;20180;-69
2024/01/15 07:34:42;;;;;;;8.37;2.40;;;0.40;99.90;;;;;;5049646;28;20227;-69
2024/01/15 07:37:08;;;;;;;5.60;2.33;;;;;;;;;;5051776;28;20229;-69
2024/01/15 07:39:34;;;;;;;2.83;2.17;;;0.40;99.90;;;;;;5053360;28;20215;-69
2024/01/15 07:42:00;;;;;;;6.37;2.33;;;;;;;;;;5053861;28;20217;-69
2024/01/15 07:44:26;;;;;;;4.83;2.10;;;0.20;99.90;;;;;;5054019;28;20200;-69
2024/01/15 07:46:52;;;;;;;2.93;2.10;;;0.40;99.90;;;;;;5054205;28;20640;-69
2024/01/15 07:49:17;;;;;;;7.13;2.47;;;0.50;99.90;;;;;;5054184;28;20266;-69
2024/01/15 07:51:46;;;;;;;4.00;2.20;;;0.50;99.90;;;;;;5050828;28;20173;-69
2024/01/15 07:54:11;;;;;;;3.00;2.30;;;0.50;99.90;;;;;;5037530;28;20181;-69
2024/01/15 07:57:00;;;;;;;6.73;2.50;;;0.60;99.90;;;;;;5053529;28;20173;-69
2024/01/15 07:59:27;;;;;;;3.53;2.33;;;0.60;99.90;;;;;;5053328;28;20182;-69
2024/01/15 08:01:53;;;;;;;5.97;2.30;;;0.40;99.90;;;;;;5041889;28;20241;-69
2024/01/15 08:04:19;;;;;;;3.37;2.23;;;0.50;99.90;;;;;;5034127;28;20177;-69
2024/01/15 08:06:46;;;;;;;3.77;2.57;;;0.40;99.90;;;;;;5048555;28;20647;-69
2024/01/15 08:09:12;;;;;;;7.60;2.63;;;0.40;99.90;;;;;;5053803;28;20183;-70
2024/01/15 08:11:44;;;;;;;4.23;2.30;;;0.80;99.90;;;;;;5053311;28;20537;-70
2024/01/15 08:14:10;;;;;;;4.57;2.70;;;0.50;99.90;;;;;;5053580;28;20177;-69
2024/01/15 08:16:37;;;;;;;3.60;2.50;;;0.60;99.90;;;;;;5053481;28;20203;-69
2024/01/15 08:19:02;;;;;;;5.77;2.40;;;0.70;99.90;;;;;;5053701;28;20204;-70
2024/01/15 08:21:29;;;;;;;3.87;2.53;;;0.10;99.90;;;;;;5053344;28;20241;-70
2024/01/15 08:23:57;;;;;;;4.67;2.53;;;0.80;99.90;;;;;;5053584;28;20532;-70
2024/01/15 08:26:22;;;;;;;3.27;2.67;;;0.60;99.90;;;;;;5053599;28;20553;-69
2024/01/15 08:28:48;;;;;;;7.97;2.83;;;0.50;99.90;;;;;;5053190;28;20175;-69
2024/01/15 08:31:14;;;;;;;3.77;2.77;;;0.80;99.90;;;;;;5053295;28;20670;-70
2024/01/15 08:33:39;;;;;;;4.30;2.53;;;0.60;99.90;;;;;;5053209;28;20244;-69
2024/01/15 08:36:05;;;;;;;4.83;2.83;;;0.40;99.90;;;;;;5051943;28;20193;-69
2024/01/15 08:38:31;;;;;;;6.10;2.73;;;0.70;99.90;;;;;;5052703;28;20188;-69
2024/01/15 08:40:58;;;;;;;4.23;2.67;;;0.60;99.90;;;;;;5052687;28;20181;-69
2024/01/15 08:43:24;;;;;;;6.47;2.90;;;0.60;99.90;;;;;;5052842;28;20169;-69
2024/01/15 08:45:51;;;;;;;5.13;2.70;;;0.50;99.90;;;;;;5052705;28;20184;-69
2024/01/15 08:48:17;;;;;;;4.87;2.77;;;0.40;99.90;;;;;;5048950;28;20679;-68
2024/01/15 08:50:45;;;;;;;4.33;2.40;;;0.40;99.90;;;;;;5039214;28;20181;-69
2024/01/15 08:53:11;;;;;;;4.90;2.70;;;;;;;;;;5052801;28;20177;-69
2024/01/15 08:55:37;;;;;;;4.33;2.30;;;1.00;99.90;;;;;;5052623;28;20170;-68
2024/01/15 08:58:03;;;;;;;5.63;2.40;;;1.60;99.90;;;;;;5047129;28;20235;-69
2024/01/15 09:00:29;;;;;;;5.17;2.80;;;2.20;99.90;;;;;;5043165;28;20175;-69
2024/01/15 09:02:56;;;;;;;5.80;3.00;;;3.40;99.90;;;;;;5052432;28;20307;-69
2024/01/15 09:05:22;;;;;;;4.97;3.00;;;3.50;99.90;;;;;;5051208;28;20178;-69
2024/01/15 09:07:48;;;;;;;3.43;3.00;;;4.00;99.90;;;;;;5052149;28;20226;-69
2024/01/15 09:10:14;;;;;;;5.87;3.23;;;4.20;99.90;;;;;;5052144;28;20197;-68
2024/01/15 09:12:39;;;;;;;5.80;3.40;;;4.50;99.90;;;;;;5050042;28;20260;-69
2024/01/15 09:15:06;;;;;;;5.33;3.70;;;4.50;99.90;;;;;;5034655;28;20599;-69
2024/01/15 09:17:34;;;;;;;5.40;2.93;;;4.80;99.90;;;;;;5049638;28;20226;-69
2024/01/15 09:20:00;;;;;;;5.93;2.90;;;5.10;99.90;;;;;;5052539;28;20185;-69
2024/01/15 09:22:26;;;;;;;4.00;2.23;;;5.00;99.90;;;;;;5050921;28;20208;-69
2024/01/15 09:24:52;;;;;;;5.13;2.30;;;5.00;99.90;;;;;;5051824;28;20166;-68
2024/01/15 09:27:18;;;;;;;5.20;2.20;;;;;;;;;;5017441;28;20686;-68
2024/01/15 09:29:45;;;;;;;5.73;2.13;;;4.30;99.90;;;;;;5032000;28;20218;-68
2024/01/15 09:32:12;;;;;;;6.27;1.83;;;4.60;99.90;;;;;;5032300;28;20220;-68
2024/01/15 09:34:38;;;;;;;8.50;1.40;;;5.10;99.90;;;;;;5048881;28;20188;-69
2024/01/15 09:37:04;;;;;;;6.40;1.30;;;;;;;;;;5051982;28;20579;-70
2024/01/15 09:39:31;;;;;;;6.70;1.30;;;6.10;99.90;;;;;;5051960;28;20169;-69
2024/01/15 09:41:57;;;;;;;10.77;1.87;;;5.90;99.90;;;;;;5051828;28;20694;-69
2024/01/15 09:44:23;;;;;;;9.10;1.30;;;7.10;99.90;;;;;;5051759;28;20197;-69
2024/01/15 09:46:52;;;;;;;6.70;1.40;;;6.90;99.90;;;;;;5051847;28;20259;-69
2024/01/15 09:49:18;;;;;;;5.00;1.27;;;6.40;1.00;;;;;;5050399;28;20157;-69
2024/01/15 09:51:45;;;;;;;10.03;1.30;;;6.40;1.00;;;;;;5049218;28;20178;-69
2024/01/15 09:54:13;;;;;;;7.90;1.50;;;6.80;1.00;;;;;;5051286;28;20173;-68
2024/01/15 09:56:39;;;;;;;5.83;1.30;;;6.70;1.00;;;;;;5051934;28;20204;-68
2024/01/15 09:59:05;;;;;;;6.10;1.20;;;6.40;1.00;;;;;;5050991;28;20162;-69
2024/01/15 10:01:32;;;;;;;8.17;1.10;;;6.00;1.00;;;;;;5051822;28;20213;-69
2024/01/15 10:03:58;;;;;;;2.60;0.90;;;5.90;1.00;;;;;;5050801;28;20192;-69
2024/01/15 10:06:27;;;;;;;5.43;0.60;;;5.50;1.00;;;;;;5050711;28;20187;-69
2024/01/15 10:08:56;;;;;;;11.40;0.93;;;5.60;1.00;;;;;;5051355;28;20263;-69
2024/01/15 10:11:22;;;;;;;4.83;1.00;;;5.30;1.00;;;;;;5050876;28;20683;-70
2024/01/15 10:13:52;;;;;;;4.30;0.97;;;5.40;1.00;;;;;;5044441;28;20185;-69
2024/01/15 10:16:21;;;;;;;3.13;0.90;;;5.20;99.90;;;;;;5040828;28;20185;-70
2024/01/15 10:18:48;;;;;;;4.47;0.50;;;5.00;99.90;;;;;;5041076;28;20177;-70
2024/01/15 10:21:14;;;;;;;3.40;0.70;;;5.00;99.90;;;;;;5039612;28;20209;-69
2024/01/15 10:23:40;;;;;;;3.83;0.60;;;5.00;99.90;;;;;;5051091;28;20251;-70
2024/01/15 10:26:06;;;;;;;1.83;0.50;;;;;;;;;;5050852;28;20188;-69
2024/01/15 10:28:32;;;;;;;4.80;0.80;;;5.10;80.40;;;;;;5051173;28;20200;-69
2024/01/15 10:30:59;;;;;;;3.97;0.70;;;5.40;1.00;;;;;;5050304;28;20506;-70
2024/01/15 10:33:25;;;;;;;3.63;0.73;;;5.60;1.00;;;;;;5050294;28;20177;-71
2024/01/15 10:35:57;;;;;;;3.97;0.70;;;5.60;99.90;;;;;;5050693;28;20387;-69
2024/01/15 10:38:24;;;;;;;6.73;1.13;;;5.50;99.90;;;;;;5050487;28;20256;-72
2024/01/15 10:40:53;;;;;;;6.80;0.90;;;5.60;99.90;;;;;;5051017;28;20198;-71
2024/01/15 10:43:20;;;;;;;7.10;0.67;;;5.40;99.90;;;;;;5050905;28;20205;-72
2024/01/15 10:45:46;;;;;;;6.47;0.87;;;5.50;1.00;;;;;;5032529;28;20212;-71
2024/01/15 10:48:12;;;;;;;3.53;0.87;;;5.70;45.90;;;;;;5050432;28;20239;-70
2024/01/15 10:50:38;;;;;;;2.33;0.80;;;6.40;1.00;;;;;;5050670;28;20577;-70
2024/01/15 10:53:05;;;;;;;2.57;0.60;;;7.60;99.90;;;;;;5050548;28;20180;-72
2024/01/15 10:55:34;;;;;;;4.53;1.00;;;8.70;1.00;;;;;;5050518;28;20208;-72
2024/01/15 10:58:03;;;;;;;5.20;1.27;;;8.30;99.90;;;;;;5050356;28;20650;-72
2024/01/15 11:00:29;;;;;;;4.43;1.00;;;;;;;;;;5049769;28;20173;-71
2024/01/15 11:02:55;;;;;;;2.90;0.90;;;;;;;;;;5031833;28;20576;-68
2024/01/15 11:05:22;;;;;;;5.60;1.10;;;8.20;1.00;;;;;;5050015;28;20181;-69
2024/01/15 11:07:54;;;;;;;7.70;0.90;;;9.70;1.00;;;;;;5031028;28;20296;-69
2024/01/15 11:10:52;;;;;;;2.17;0.80;;;11.00;1.00;;;;;;5031903;28;20181;-71
2024/01/15 11:13:39;;;;;;;3.10;1.00;;;10.60;99.90;;;;;;5018908;28;20683;-71
2024/01/15 11:16:10;;;;;;;7.37;0.70;;;10.00;1.00;;;;;;5034885;28;20256;-69
2024/01/15 11:18:37;;;;;;;2.70;0.70;;;8.60;1.00;;;;;;5043016;28;20169;-69
2024/01/15 11:21:15;;;;;;;2.23;0.50;;;9.10;1.00;;;;;;5053575;28;20170;-69
2024/01/15 11:23:51;;;;;;;7.07;0.73;;;10.10;1.00;;;;;;5054525;28;20249;-70
2024/01/15 11:26:41;;;;;;;7.67;0.77;;;10.00;1.00;;;;;;5054572;28;20181;-69
2024/01/15 11:29:08;;;;;;;5.07;0.63;;;9.90;99.90;;;;;;5045919;28;20181;-70
2024/01/15 11:31:39;;;;;;;3.13;0.57;;;9.70;99.90;;;;;;5048363;28;20253;-70
2024/01/15 11:34:06;;;;;;;2.33;0.70;;;10.00;99.90;;;;;;5047395;28;20228;-69
2024/01/15 11:36:50;;;;;;;1.40;0.43;;;11.20;23.00;;;;;;5053777;28;20223;-70
2024/01/15 11:39:28;;;;;;;2.85;0.60;;;11.40;99.90;;;;;;5054370;28;20647;-70
2024/01/15 11:41:58;;;;;;;1.63;0.50;;;10.60;1.00;;;;;;5054145;28;20267;-69
2024/01/15 11:44:24;;;;;;;5.68;0.65;;;12.70;99.90;;;;;;5053984;28;20187;-69
2024/01/15 11:47:02;;;;;;;1.13;0.50;;;14.50;99.90;;;;;;5053733;28;20714;-71
2024/01/15 11:49:46;;;;;;;2.60;0.40;;;14.60;1.00;;;;;;5054133;28;20162;-69
2024/01/15 11:52:13;;;;;;;4.13;0.52;;;15.00;1.00;;;;;;5053705;28;20651;-70
2024/01/15 11:54:42;;;;;;;2.55;0.47;;;15.30;99.90;;;;;;5053637;28;20228;-69
2024/01/15 11:57:15;;;;;;;4.60;1.15;;;16.30;1.00;;;;;;5053736;28;20181;-69
2024/01/15 11:59:41;;;;;;;6.53;1.20;;;16.40;94.20;;;;;;5053755;28;20169;-68
2024/01/15 12:02:07;;;;;;;5.25;0.98;;;17.30;99.90;;;;;;5053414;28;20278;-71
2024/01/15 12:04:33;;;;;;;3.30;0.82;;;17.70;99.90;;;;;;5053645;28;20169;-70
2024/01/15 12:06:59;;;;;;;2.92;0.70;;;15.70;1.00;;;;;;5053540;28;20646;-74
2024/01/15 12:09:24;;;;;;;1.38;0.73;;;13.80;1.00;;;;;;5053642;28;20180;-71
2024/01/15 12:12:05;;;;;;;1.90;0.70;;;16.40;1.00;;;;;;5053737;28;20582;-71
2024/01/15 12:14:31;;;;;;;6.63;0.88;;;17.10;1.00;;;;;;5037213;28;20177;-71
2024/01/15 12:16:57;;;;;;;7.00;0.82;;;17.70;1.00;;;;;;5053716;28;20188;-69
2024/01/15 12:19:23;;;;;;;3.40;0.82;;;17.60;1.00;;;;;;5053700;28;20169;-70
2024/01/15 12:21:51;;;;;;;3.20;1.00;;;17.40;1.00;;;;;;5034874;28;20224;-70
2024/01/15 12:24:17;;;;;;;5.85;0.85;;;15.00;99.90;;;;;;5053521;28;20255;-69
2024/01/15 12:26:43;;;;;;;2.60;0.70;;;15.70;1.00;;;;;;5053297;28;20173;-71
2024/01/15 12:29:11;;;;;;;2.92;0.80;;;17.90;1.00;;;;;;5053434;28;20176;-70
2024/01/15 12:31:37;;;;;;;4.20;1.02;;;19.40;1.00;;;;;;5053149;28;20172;-71
2024/01/15 12:34:03;;;;;;;2.13;0.70;;;18.40;1.00;;;;;;5053256;28;20174;-71
2024/01/15 12:36:31;;;;;;;4.18;0.90;;;18.30;1.00;;;;;;5053306;28;20248;-70
2024/01/15 12:39:00;;;;;;;1.88;1.05;;;18.30;99.90;;;;;;5035159;28;20203;-70
2024/01/15 12:41:26;;;;;;;8.32;1.73;;;17.80;1.00;;;;;;5053093;28;20714;-70
2024/01/15 12:43:52;;;;;;;5.43;1.00;;;17.80;99.90;;;;;;5053294;28;20174;-70
2024/01/15 12:46:19;;;;;;;3.60;0.90;;;18.10;1.00;;;;;;5052693;28;20588;-71
2024/01/15 12:48:44;;;;;;;3.33;0.70;;;18.40;1.00;;;;;;5051130;28;20201;-71
2024/01/15 12:51:10;;;;;;;4.55;1.20;;;18.30;1.00;;;;;;5050904;28;20208;-70
2024/01/15 12:53:36;;;;;;;3.42;1.10;;;17.90;1.00;;;;;;5051029;28;20165;-70
2024/01/15 12:56:02;;;;;;;6.72;1.45;;;17.30;1.00;;;;;;5051018;28;20165;-71
2024/01/15 12:58:27;;;;;;;3.55;1.10;;;15.80;1.00;;;;;;5051105;28;20508;-69
2024/01/15 13:00:53;;;;;;;2.08;0.80;;;15.60;1.00;;;;;;5050847;28;20226;-69